Oneco, Connecticut
Current Conditions -  °F | °C
As of 7:51 AM on Thursday 27 Nov 2014 (Local Time) from KPVD Reporting Station
Broken Clouds Broken Clouds  
Wind Chill: 29°   Ceiling: 6000
Heat Index: 34°   Visibility: 10mi
Dew Point: 30°   Wind: 6mph
Humidity: 85%   Direction: 250°WSW
Pressure: 29.91"   Gusts: NA
Location:  41.69°N, 71.81°W
Report Text: KPVD 271251Z 25005KT 10SM FEW010 BKN060 01/M01 A2991 RMK AO2 SLP129 T00111011
Loading
Personal Weather Stations






























Interactive Weather Map New forecast layout! Learn more

10-Day Weather Forecast

Advertisements
Track Severe Weather on mobile